sensor_id;sensor_type;location;lat;lon;timestamp;temperature;humidity
47168;DHT22;32931;47.778;17.806;2022-11-12T00:00:49;8.40;99.90
47168;DHT22;32931;47.778;17.806;2022-11-12T00:03:15;8.30;99.90
47168;DHT22;32931;47.778;17.806;2022-11-12T00:05:43;8.30;99.90
47168;DHT22;32931;47.778;17.806;2022-11-12T00:08:09;8.30;99.90
47168;DHT22;32931;47.778;17.806;2022-11-12T00:10:36;8.30;99.90
47168;DHT22;32931;47.778;17.806;2022-11-12T00:13:02;8.30;99.90
47168;DHT22;32931;47.778;17.806;2022-11-12T00:15:28;8.30;99.90
47168;DHT22;32931;47.778;17.806;2022-11-12T00:17:54;8.20;99.90
47168;DHT22;32931;47.778;17.806;2022-11-12T00:20:20;8.20;99.90
47168;DHT22;32931;47.778;17.806;2022-11-12T00:22:46;8.20;99.90
47168;DHT22;32931;47.778;17.806;2022-11-12T00:25:13;8.20;99.90
47168;DHT22;32931;47.778;17.806;2022-11-12T00:27:39;8.10;99.90
47168;DHT22;32931;47.778;17.806;2022-11-12T00:30:06;8.20;99.90
47168;DHT22;32931;47.778;17.806;2022-11-12T00:32:35;8.20;99.90
47168;DHT22;32931;47.778;17.806;2022-11-12T00:35:03;8.20;99.90
47168;DHT22;32931;47.778;17.806;2022-11-12T00:37:30;8.20;99.90
47168;DHT22;32931;47.778;17.806;2022-11-12T00:39:56;8.30;99.90
47168;DHT22;32931;47.778;17.806;2022-11-12T00:42:22;8.20;99.90
47168;DHT22;32931;47.778;17.806;2022-11-12T00:44:48;8.30;99.90
47168;DHT22;32931;47.778;17.806;2022-11-12T00:47:15;8.30;99.90
47168;DHT22;32931;47.778;17.806;2022-11-12T00:49:41;8.30;99.90
47168;DHT22;32931;47.778;17.806;2022-11-12T00:52:07;8.30;99.90
47168;DHT22;32931;47.778;17.806;2022-11-12T00:54:33;8.30;99.90
47168;DHT22;32931;47.778;17.806;2022-11-12T00:56:59;8.20;99.90
47168;DHT22;32931;47.778;17.806;2022-11-12T00:59:25;8.20;99.90
47168;DHT22;32931;47.778;17.806;2022-11-12T01:01:52;8.20;99.90
47168;DHT22;32931;47.778;17.806;2022-11-12T01:04:18;8.30;99.90
47168;DHT22;32931;47.778;17.806;2022-11-12T01:06:44;8.30;99.90
47168;DHT22;32931;47.778;17.806;2022-11-12T01:09:10;8.30;99.90
47168;DHT22;32931;47.778;17.806;2022-11-12T01:11:36;8.40;99.90
47168;DHT22;32931;47.778;17.806;2022-11-12T01:14:07;8.30;99.90
47168;DHT22;32931;47.778;17.806;2022-11-12T01:16:37;8.20;99.90
47168;DHT22;32931;47.778;17.806;2022-11-12T01:19:06;8.30;99.90
47168;DHT22;32931;47.778;17.806;2022-11-12T01:21:38;8.20;99.90
47168;DHT22;32931;47.778;17.806;2022-11-12T01:24:05;8.10;99.90
47168;DHT22;32931;47.778;17.806;2022-11-12T01:26:31;8.20;99.90
47168;DHT22;32931;47.778;17.806;2022-11-12T01:28:57;8.10;99.90
47168;DHT22;32931;47.778;17.806;2022-11-12T01:31:41;8.10;99.90
47168;DHT22;32931;47.778;17.806;2022-11-12T01:34:08;8.10;99.90
47168;DHT22;32931;47.778;17.806;2022-11-12T01:36:37;8.00;99.90
47168;DHT22;32931;47.778;17.806;2022-11-12T01:39:05;8.00;99.90
47168;DHT22;32931;47.778;17.806;2022-11-12T01:41:35;8.00;99.90
47168;DHT22;32931;47.778;17.806;2022-11-12T01:52:36;8.00;99.90
47168;DHT22;32931;47.778;17.806;2022-11-12T01:55:09;8.00;99.90
47168;DHT22;32931;47.778;17.806;2022-11-12T01:57:47;8.00;99.90
47168;DHT22;32931;47.778;17.806;2022-11-12T02:00:14;8.00;99.90
47168;DHT22;32931;47.778;17.806;2022-11-12T02:02:43;8.00;99.90
47168;DHT22;32931;47.778;17.806;2022-11-12T02:05:12;8.00;99.90
47168;DHT22;32931;47.778;17.806;2022-11-12T02:07:40;8.00;99.90
47168;DHT22;32931;47.778;17.806;2022-11-12T02:10:08;7.90;99.90
47168;DHT22;32931;47.778;17.806;2022-11-12T02:12:35;8.00;99.90
47168;DHT22;32931;47.778;17.806;2022-11-12T02:15:20;7.90;99.90
47168;DHT22;32931;47.778;17.806;2022-11-12T02:17:46;7.90;99.90
47168;DHT22;32931;47.778;17.806;2022-11-12T02:20:13;8.00;99.90
47168;DHT22;32931;47.778;17.806;2022-11-12T02:22:39;8.00;99.90
47168;DHT22;32931;47.778;17.806;2022-11-12T02:25:07;8.00;99.90
47168;DHT22;32931;47.778;17.806;2022-11-12T02:27:34;8.00;99.90
47168;DHT22;32931;47.778;17.806;2022-11-12T02:30:00;8.00;99.90
47168;DHT22;32931;47.778;17.806;2022-11-12T02:32:26;8.00;99.90
47168;DHT22;32931;47.778;17.806;2022-11-12T02:34:52;8.00;99.90
47168;DHT22;32931;47.778;17.806;2022-11-12T02:37:18;7.80;99.90
47168;DHT22;32931;47.778;17.806;2022-11-12T02:39:44;7.50;99.90
47168;DHT22;32931;47.778;17.806;2022-11-12T02:42:10;7.30;99.90
47168;DHT22;32931;47.778;17.806;2022-11-12T02:44:37;7.30;99.90
47168;DHT22;32931;47.778;17.806;2022-11-12T02:47:03;7.20;99.90
47168;DHT22;32931;47.778;17.806;2022-11-12T02:49:29;7.20;99.90
47168;DHT22;32931;47.778;17.806;2022-11-12T02:51:55;7.20;99.90
47168;DHT22;32931;47.778;17.806;2022-11-12T02:54:21;7.20;99.90
47168;DHT22;32931;47.778;17.806;2022-11-12T02:56:47;7.30;99.90
47168;DHT22;32931;47.778;17.806;2022-11-12T02:59:13;7.30;99.90
47168;DHT22;32931;47.778;17.806;2022-11-12T03:01:39;7.30;99.90
47168;DHT22;32931;47.778;17.806;2022-11-12T03:04:05;7.40;99.90
47168;DHT22;32931;47.778;17.806;2022-11-12T03:06:32;7.40;99.90
47168;DHT22;32931;47.778;17.806;2022-11-12T03:08:58;7.50;99.90
47168;DHT22;32931;47.778;17.806;2022-11-12T03:11:24;7.50;99.90
47168;DHT22;32931;47.778;17.806;2022-11-12T03:13:50;7.50;99.90
47168;DHT22;32931;47.778;17.806;2022-11-12T03:16:16;7.60;99.90
47168;DHT22;32931;47.778;17.806;2022-11-12T03:18:42;7.50;99.90
47168;DHT22;32931;47.778;17.806;2022-11-12T03:21:08;7.50;99.90
47168;DHT22;32931;47.778;17.806;2022-11-12T03:23:34;7.50;99.90
47168;DHT22;32931;47.778;17.806;2022-11-12T03:26:02;7.50;99.90
47168;DHT22;32931;47.778;17.806;2022-11-12T03:28:28;7.50;99.90
47168;DHT22;32931;47.778;17.806;2022-11-12T03:30:58;7.50;99.90
47168;DHT22;32931;47.778;17.806;2022-11-12T03:33:25;7.50;99.90
47168;DHT22;32931;47.778;17.806;2022-11-12T03:35:51;7.50;99.90
47168;DHT22;32931;47.778;17.806;2022-11-12T03:38:17;7.30;99.90
47168;DHT22;32931;47.778;17.806;2022-11-12T03:40:43;7.30;99.90
47168;DHT22;32931;47.778;17.806;2022-11-12T03:43:10;7.30;99.90
47168;DHT22;32931;47.778;17.806;2022-11-12T03:45:36;7.30;99.90
47168;DHT22;32931;47.778;17.806;2022-11-12T03:48:02;7.40;99.90
47168;DHT22;32931;47.778;17.806;2022-11-12T03:50:28;7.40;99.90
47168;DHT22;32931;47.778;17.806;2022-11-12T03:52:57;7.40;99.90
47168;DHT22;32931;47.778;17.806;2022-11-12T03:55:25;7.50;99.90
47168;DHT22;32931;47.778;17.806;2022-11-12T03:57:52;7.50;99.90
47168;DHT22;32931;47.778;17.806;2022-11-12T04:00:20;7.50;99.90
47168;DHT22;32931;47.778;17.806;2022-11-12T04:02:47;7.50;99.90
47168;DHT22;32931;47.778;17.806;2022-11-12T04:05:14;7.50;99.90
47168;DHT22;32931;47.778;17.806;2022-11-12T04:08:09;7.40;99.90
47168;DHT22;32931;47.778;17.806;2022-11-12T04:10:56;7.20;99.90
47168;DHT22;32931;47.778;17.806;2022-11-12T04:13:22;7.10;99.90
47168;DHT22;32931;47.778;17.806;2022-11-12T04:16:02;7.20;99.90
47168;DHT22;32931;47.778;17.806;2022-11-12T04:18:48;7.10;99.90
47168;DHT22;32931;47.778;17.806;2022-11-12T04:21:48;7.00;99.90
47168;DHT22;32931;47.778;17.806;2022-11-12T04:24:26;7.00;99.90
47168;DHT22;32931;47.778;17.806;2022-11-12T04:27:31;7.00;99.90
47168;DHT22;32931;47.778;17.806;2022-11-12T04:29:58;7.10;99.90
47168;DHT22;32931;47.778;17.806;2022-11-12T04:32:54;7.10;99.90
47168;DHT22;32931;47.778;17.806;2022-11-12T04:35:23;7.20;99.90
47168;DHT22;32931;47.778;17.806;2022-11-12T04:37:50;7.20;99.90
47168;DHT22;32931;47.778;17.806;2022-11-12T04:40:26;7.20;99.90
47168;DHT22;32931;47.778;17.806;2022-11-12T04:43:13;7.30;99.90
47168;DHT22;32931;47.778;17.806;2022-11-12T04:45:59;7.30;99.90
47168;DHT22;32931;47.778;17.806;2022-11-12T04:48:26;7.30;99.90
47168;DHT22;32931;47.778;17.806;2022-11-12T04:51:00;7.30;99.90
47168;DHT22;32931;47.778;17.806;2022-11-12T04:53:28;7.30;99.90
47168;DHT22;32931;47.778;17.806;2022-11-12T04:55:56;7.20;99.90
47168;DHT22;32931;47.778;17.806;2022-11-12T04:58:23;7.20;99.90
47168;DHT22;32931;47.778;17.806;2022-11-12T05:00:50;7.20;99.90
47168;DHT22;32931;47.778;17.806;2022-11-12T05:03:16;7.20;99.90
47168;DHT22;32931;47.778;17.806;2022-11-12T05:05:43;7.20;99.90
47168;DHT22;32931;47.778;17.806;2022-11-12T05:08:09;7.20;99.90
47168;DHT22;32931;47.778;17.806;2022-11-12T05:10:35;7.20;99.90
47168;DHT22;32931;47.778;17.806;2022-11-12T05:13:01;7.20;99.90
47168;DHT22;32931;47.778;17.806;2022-11-12T05:15:27;7.20;99.90
47168;DHT22;32931;47.778;17.806;2022-11-12T05:17:53;7.20;99.90
47168;DHT22;32931;47.778;17.806;2022-11-12T05:20:19;7.20;99.90
47168;DHT22;32931;47.778;17.806;2022-11-12T05:22:46;7.10;99.90
47168;DHT22;32931;47.778;17.806;2022-11-12T05:25:12;7.10;99.90
47168;DHT22;32931;47.778;17.806;2022-11-12T05:27:38;7.10;99.90
47168;DHT22;32931;47.778;17.806;2022-11-12T05:30:04;7.00;99.90
47168;DHT22;32931;47.778;17.806;2022-11-12T05:32:31;7.00;99.90
47168;DHT22;32931;47.778;17.806;2022-11-12T05:34:57;7.00;99.90
47168;DHT22;32931;47.778;17.806;2022-11-12T05:37:24;7.00;99.90
47168;DHT22;32931;47.778;17.806;2022-11-12T05:39:50;7.00;99.90
47168;DHT22;32931;47.778;17.806;2022-11-12T05:42:16;7.00;99.90
47168;DHT22;32931;47.778;17.806;2022-11-12T05:44:42;7.00;99.90
47168;DHT22;32931;47.778;17.806;2022-11-12T05:47:08;7.00;99.90
47168;DHT22;32931;47.778;17.806;2022-11-12T05:49:34;7.00;99.90
47168;DHT22;32931;47.778;17.806;2022-11-12T05:52:00;7.00;99.90
47168;DHT22;32931;47.778;17.806;2022-11-12T05:54:26;7.10;99.90
47168;DHT22;32931;47.778;17.806;2022-11-12T05:56:52;7.10;99.90
47168;DHT22;32931;47.778;17.806;2022-11-12T05:59:19;7.10;99.90
47168;DHT22;32931;47.778;17.806;2022-11-12T06:01:45;7.20;99.90
47168;DHT22;32931;47.778;17.806;2022-11-12T06:04:12;7.20;99.90
47168;DHT22;32931;47.778;17.806;2022-11-12T06:06:40;7.20;99.90
47168;DHT22;32931;47.778;17.806;2022-11-12T06:09:07;7.10;99.90
47168;DHT22;32931;47.778;17.806;2022-11-12T06:11:33;7.20;99.90
47168;DHT22;32931;47.778;17.806;2022-11-12T06:13:59;7.20;99.90
47168;DHT22;32931;47.778;17.806;2022-11-12T06:16:26;7.20;99.90
47168;DHT22;32931;47.778;17.806;2022-11-12T06:18:53;7.20;99.90
47168;DHT22;32931;47.778;17.806;2022-11-12T06:21:19;7.20;99.90
47168;DHT22;32931;47.778;17.806;2022-11-12T06:23:49;7.10;99.90
47168;DHT22;32931;47.778;17.806;2022-11-12T06:26:16;7.00;99.90
47168;DHT22;32931;47.778;17.806;2022-11-12T06:28:42;7.00;99.90
47168;DHT22;32931;47.778;17.806;2022-11-12T06:31:08;7.00;99.90
47168;DHT22;32931;47.778;17.806;2022-11-12T06:33:34;7.00;99.90
47168;DHT22;32931;47.778;17.806;2022-11-12T06:36:03;7.00;99.90
47168;DHT22;32931;47.778;17.806;2022-11-12T06:38:37;7.00;99.90
47168;DHT22;32931;47.778;17.806;2022-11-12T06:41:04;7.00;99.90
47168;DHT22;32931;47.778;17.806;2022-11-12T06:43:31;7.10;99.90
47168;DHT22;32931;47.778;17.806;2022-11-12T06:46:00;7.10;99.90
47168;DHT22;32931;47.778;17.806;2022-11-12T06:48:27;7.10;99.90
47168;DHT22;32931;47.778;17.806;2022-11-12T06:50:54;7.20;99.90
47168;DHT22;32931;47.778;17.806;2022-11-12T06:53:20;7.20;99.90
47168;DHT22;32931;47.778;17.806;2022-11-12T06:55:46;7.20;99.90
47168;DHT22;32931;47.778;17.806;2022-11-12T06:58:12;7.20;99.90
47168;DHT22;32931;47.778;17.806;2022-11-12T07:00:39;7.30;99.90
47168;DHT22;32931;47.778;17.806;2022-11-12T07:03:09;7.30;99.90
47168;DHT22;32931;47.778;17.806;2022-11-12T07:05:37;7.30;99.90
47168;DHT22;32931;47.778;17.806;2022-11-12T07:08:04;7.40;99.90
47168;DHT22;32931;47.778;17.806;2022-11-12T07:10:31;7.40;99.90
47168;DHT22;32931;47.778;17.806;2022-11-12T07:12:57;7.30;99.90
47168;DHT22;32931;47.778;17.806;2022-11-12T07:15:24;7.40;99.90
47168;DHT22;32931;47.778;17.806;2022-11-12T07:17:50;7.40;99.90
47168;DHT22;32931;47.778;17.806;2022-11-12T07:20:16;7.40;99.90
47168;DHT22;32931;47.778;17.806;2022-11-12T07:22:42;7.50;99.90
47168;DHT22;32931;47.778;17.806;2022-11-12T07:25:08;7.50;99.90
47168;DHT22;32931;47.778;17.806;2022-11-12T07:27:34;7.40;99.90
47168;DHT22;32931;47.778;17.806;2022-11-12T07:30:00;7.50;99.90
47168;DHT22;32931;47.778;17.806;2022-11-12T07:32:27;7.50;99.90
47168;DHT22;32931;47.778;17.806;2022-11-12T07:34:53;7.50;99.90
47168;DHT22;32931;47.778;17.806;2022-11-12T07:37:19;7.50;99.90
47168;DHT22;32931;47.778;17.806;2022-11-12T07:39:45;7.50;99.90
47168;DHT22;32931;47.778;17.806;2022-11-12T07:42:11;7.50;99.90
47168;DHT22;32931;47.778;17.806;2022-11-12T07:44:37;7.50;99.90
47168;DHT22;32931;47.778;17.806;2022-11-12T07:47:04;7.50;99.90
47168;DHT22;32931;47.778;17.806;2022-11-12T07:49:30;7.60;99.90
47168;DHT22;32931;47.778;17.806;2022-11-12T07:51:56;7.70;99.90
47168;DHT22;32931;47.778;17.806;2022-11-12T07:54:22;7.70;99.90
47168;DHT22;32931;47.778;17.806;2022-11-12T07:56:48;7.80;99.90
47168;DHT22;32931;47.778;17.806;2022-11-12T07:59:14;7.80;99.90
47168;DHT22;32931;47.778;17.806;2022-11-12T08:01:41;7.80;99.90
47168;DHT22;32931;47.778;17.806;2022-11-12T08:04:09;7.70;99.90
47168;DHT22;32931;47.778;17.806;2022-11-12T08:06:35;7.70;99.90
47168;DHT22;32931;47.778;17.806;2022-11-12T08:09:03;7.80;99.90
47168;DHT22;32931;47.778;17.806;2022-11-12T08:11:31;7.90;99.90
47168;DHT22;32931;47.778;17.806;2022-11-12T08:13:57;7.90;99.90
47168;DHT22;32931;47.778;17.806;2022-11-12T08:16:23;8.00;99.90
47168;DHT22;32931;47.778;17.806;2022-11-12T08:18:50;8.10;99.90
47168;DHT22;32931;47.778;17.806;2022-11-12T08:21:17;8.20;99.90
47168;DHT22;32931;47.778;17.806;2022-11-12T08:23:44;8.30;99.90
47168;DHT22;32931;47.778;17.806;2022-11-12T08:26:13;8.30;99.90
47168;DHT22;32931;47.778;17.806;2022-11-12T08:28:39;8.50;99.90
47168;DHT22;32931;47.778;17.806;2022-11-12T08:31:08;8.50;99.90
47168;DHT22;32931;47.778;17.806;2022-11-12T08:33:35;8.60;99.90
47168;DHT22;32931;47.778;17.806;2022-11-12T08:36:07;8.70;99.90
47168;DHT22;32931;47.778;17.806;2022-11-12T08:38:34;8.80;99.90
47168;DHT22;32931;47.778;17.806;2022-11-12T08:41:05;8.80;99.90
47168;DHT22;32931;47.778;17.806;2022-11-12T08:43:32;8.90;99.90
47168;DHT22;32931;47.778;17.806;2022-11-12T08:45:59;9.00;99.90
47168;DHT22;32931;47.778;17.806;2022-11-12T08:48:26;9.10;99.90
47168;DHT22;32931;47.778;17.806;2022-11-12T08:50:52;9.10;99.90
47168;DHT22;32931;47.778;17.806;2022-11-12T08:53:21;9.20;99.90
47168;DHT22;32931;47.778;17.806;2022-11-12T08:55:47;9.30;99.90
47168;DHT22;32931;47.778;17.806;2022-11-12T08:58:14;9.30;99.90
47168;DHT22;32931;47.778;17.806;2022-11-12T09:00:42;9.40;99.90
47168;DHT22;32931;47.778;17.806;2022-11-12T09:03:16;9.50;99.90
47168;DHT22;32931;47.778;17.806;2022-11-12T09:05:42;9.50;99.90
47168;DHT22;32931;47.778;17.806;2022-11-12T09:08:11;9.60;99.90
47168;DHT22;32931;47.778;17.806;2022-11-12T09:10:38;9.70;99.90
47168;DHT22;32931;47.778;17.806;2022-11-12T09:13:05;9.70;99.90
47168;DHT22;32931;47.778;17.806;2022-11-12T09:15:32;9.80;99.90
47168;DHT22;32931;47.778;17.806;2022-11-12T09:18:03;9.80;99.90
47168;DHT22;32931;47.778;17.806;2022-11-12T09:20:30;9.90;99.90
47168;DHT22;32931;47.778;17.806;2022-11-12T09:22:59;9.90;99.90
47168;DHT22;32931;47.778;17.806;2022-11-12T09:25:25;10.00;99.90
47168;DHT22;32931;47.778;17.806;2022-11-12T09:27:52;10.00;99.90
47168;DHT22;32931;47.778;17.806;2022-11-12T09:30:18;10.10;99.90
47168;DHT22;32931;47.778;17.806;2022-11-12T09:32:44;10.10;99.90
47168;DHT22;32931;47.778;17.806;2022-11-12T09:35:11;10.20;99.90
47168;DHT22;32931;47.778;17.806;2022-11-12T09:37:37;10.30;99.90
47168;DHT22;32931;47.778;17.806;2022-11-12T09:40:05;10.30;99.90
47168;DHT22;32931;47.778;17.806;2022-11-12T09:42:33;10.40;99.90
47168;DHT22;32931;47.778;17.806;2022-11-12T09:45:25;10.40;99.90
47168;DHT22;32931;47.778;17.806;2022-11-12T09:47:59;10.40;99.90
47168;DHT22;32931;47.778;17.806;2022-11-12T09:50:33;10.40;99.90
47168;DHT22;32931;47.778;17.806;2022-11-12T09:53:15;10.50;99.90
47168;DHT22;32931;47.778;17.806;2022-11-12T09:55:50;10.60;99.90
47168;DHT22;32931;47.778;17.806;2022-11-12T09:58:17;10.50;99.90
47168;DHT22;32931;47.778;17.806;2022-11-12T10:01:15;10.60;99.90
47168;DHT22;32931;47.778;17.806;2022-11-12T10:12:20;10.60;99.90
47168;DHT22;32931;47.778;17.806;2022-11-12T10:23:57;10.70;99.90
47168;DHT22;32931;47.778;17.806;2022-11-12T10:26:24;10.70;99.90
47168;DHT22;32931;47.778;17.806;2022-11-12T10:31:36;10.70;99.90
47168;DHT22;32931;47.778;17.806;2022-11-12T10:34:20;10.70;99.90
47168;DHT22;32931;47.778;17.806;2022-11-12T10:37:00;10.70;99.90
47168;DHT22;32931;47.778;17.806;2022-11-12T10:39:41;10.70;99.90
47168;DHT22;32931;47.778;17.806;2022-11-12T10:42:11;10.60;99.90
47168;DHT22;32931;47.778;17.806;2022-11-12T10:44:39;10.60;99.90
47168;DHT22;32931;47.778;17.806;2022-11-12T10:47:29;10.60;99.90
47168;DHT22;32931;47.778;17.806;2022-11-12T10:50:21;10.60;99.90
47168;DHT22;32931;47.778;17.806;2022-11-12T10:52:56;10.60;99.90
47168;DHT22;32931;47.778;17.806;2022-11-12T10:55:31;10.60;99.90
47168;DHT22;32931;47.778;17.806;2022-11-12T11:03:30;10.60;99.90
47168;DHT22;32931;47.778;17.806;2022-11-12T11:06:03;10.60;99.90
47168;DHT22;32931;47.778;17.806;2022-11-12T11:13:43;10.70;99.90
47168;DHT22;32931;47.778;17.806;2022-11-12T11:16:24;10.70;99.90
47168;DHT22;32931;47.778;17.806;2022-11-12T11:18:54;10.70;99.90
47168;DHT22;32931;47.778;17.806;2022-11-12T11:38:32;10.70;99.90
47168;DHT22;32931;47.778;17.806;2022-11-12T11:44:28;10.80;99.90
47168;DHT22;32931;47.778;17.806;2022-11-12T11:57:58;10.70;99.90
47168;DHT22;32931;47.778;17.806;2022-11-12T12:00:44;10.70;99.90
47168;DHT22;32931;47.778;17.806;2022-11-12T12:03:19;10.70;99.90
47168;DHT22;32931;47.778;17.806;2022-11-12T12:06:21;10.70;99.90
47168;DHT22;32931;47.778;17.806;2022-11-12T12:09:20;10.70;99.90
47168;DHT22;32931;47.778;17.806;2022-11-12T12:15:10;10.70;99.90
47168;DHT22;32931;47.778;17.806;2022-11-12T12:20:20;10.70;99.90
47168;DHT22;32931;47.778;17.806;2022-11-12T12:23:00;10.70;99.90
47168;DHT22;32931;47.778;17.806;2022-11-12T12:25:39;10.80;99.90
47168;DHT22;32931;47.778;17.806;2022-11-12T12:30:58;10.80;99.90
47168;DHT22;32931;47.778;17.806;2022-11-12T12:36:23;10.80;99.90
47168;DHT22;32931;47.778;17.806;2022-11-12T12:42:04;10.90;99.90
47168;DHT22;32931;47.778;17.806;2022-11-12T12:44:42;10.90;99.90
47168;DHT22;32931;47.778;17.806;2022-11-12T12:47:28;10.90;99.90
47168;DHT22;32931;47.778;17.806;2022-11-12T12:49:55;11.00;99.90
47168;DHT22;32931;47.778;17.806;2022-11-12T12:52:23;11.00;99.90
47168;DHT22;32931;47.778;17.806;2022-11-12T12:57:34;11.10;99.90
47168;DHT22;32931;47.778;17.806;2022-11-12T13:00:38;11.20;99.90
47168;DHT22;32931;47.778;17.806;2022-11-12T13:03:08;11.20;99.90
47168;DHT22;32931;47.778;17.806;2022-11-12T13:05:36;11.20;99.90
47168;DHT22;32931;47.778;17.806;2022-11-12T13:08:12;11.20;99.90
47168;DHT22;32931;47.778;17.806;2022-11-12T13:15:45;11.40;99.90
47168;DHT22;32931;47.778;17.806;2022-11-12T13:21:11;11.40;99.90
47168;DHT22;32931;47.778;17.806;2022-11-12T13:26:48;11.60;99.90
47168;DHT22;32931;47.778;17.806;2022-11-12T13:29:22;11.60;99.90
47168;DHT22;32931;47.778;17.806;2022-11-12T13:31:48;11.70;99.90
47168;DHT22;32931;47.778;17.806;2022-11-12T13:34:20;11.60;99.90
47168;DHT22;32931;47.778;17.806;2022-11-12T13:36:59;11.60;99.90
47168;DHT22;32931;47.778;17.806;2022-11-12T13:39:27;11.60;99.90
47168;DHT22;32931;47.778;17.806;2022-11-12T13:41:56;11.60;99.90
47168;DHT22;32931;47.778;17.806;2022-11-12T13:44:41;11.50;99.90
47168;DHT22;32931;47.778;17.806;2022-11-12T13:47:17;11.50;99.90
47168;DHT22;32931;47.778;17.806;2022-11-12T13:49:46;11.50;99.90
47168;DHT22;32931;47.778;17.806;2022-11-12T13:52:13;11.50;99.90
47168;DHT22;32931;47.778;17.806;2022-11-12T13:54:41;11.50;99.90
47168;DHT22;32931;47.778;17.806;2022-11-12T13:59:39;11.40;99.90
47168;DHT22;32931;47.778;17.806;2022-11-12T14:02:22;11.30;99.90
47168;DHT22;32931;47.778;17.806;2022-11-12T14:04:50;11.30;99.90
47168;DHT22;32931;47.778;17.806;2022-11-12T14:07:42;11.20;99.90
47168;DHT22;32931;47.778;17.806;2022-11-12T14:10:33;11.20;99.90
47168;DHT22;32931;47.778;17.806;2022-11-12T14:13:12;11.20;99.90
47168;DHT22;32931;47.778;17.806;2022-11-12T14:20:55;11.20;99.90
47168;DHT22;32931;47.778;17.806;2022-11-12T14:23:22;11.10;99.90
47168;DHT22;32931;47.778;17.806;2022-11-12T14:28:26;11.10;99.90
47168;DHT22;32931;47.778;17.806;2022-11-12T14:30:53;11.20;99.90
47168;DHT22;32931;47.778;17.806;2022-11-12T14:33:22;11.10;99.90
47168;DHT22;32931;47.778;17.806;2022-11-12T14:35:52;11.10;99.90
47168;DHT22;32931;47.778;17.806;2022-11-12T14:38:21;11.10;99.90
47168;DHT22;32931;47.778;17.806;2022-11-12T14:40:53;11.10;99.90
47168;DHT22;32931;47.778;17.806;2022-11-12T14:43:43;11.10;99.90
47168;DHT22;32931;47.778;17.806;2022-11-12T14:46:28;11.10;99.90
47168;DHT22;32931;47.778;17.806;2022-11-12T14:49:20;11.00;99.90
47168;DHT22;32931;47.778;17.806;2022-11-12T14:51:51;11.00;99.90
47168;DHT22;32931;47.778;17.806;2022-11-12T14:54:45;10.90;99.90
47168;DHT22;32931;47.778;17.806;2022-11-12T14:57:19;10.90;99.90
47168;DHT22;32931;47.778;17.806;2022-11-12T14:59:46;10.90;99.90
47168;DHT22;32931;47.778;17.806;2022-11-12T15:02:19;10.80;99.90
47168;DHT22;32931;47.778;17.806;2022-11-12T15:05:14;10.70;99.90
47168;DHT22;32931;47.778;17.806;2022-11-12T15:08:02;10.60;99.90
47168;DHT22;32931;47.778;17.806;2022-11-12T15:10:44;10.60;99.90
47168;DHT22;32931;47.778;17.806;2022-11-12T15:16:03;10.50;99.90
47168;DHT22;32931;47.778;17.806;2022-11-12T15:18:30;10.40;99.90
47168;DHT22;32931;47.778;17.806;2022-11-12T15:21:21;10.40;99.90
47168;DHT22;32931;47.778;17.806;2022-11-12T15:23:49;10.30;99.90
47168;DHT22;32931;47.778;17.806;2022-11-12T15:26:33;10.20;99.90
47168;DHT22;32931;47.778;17.806;2022-11-12T15:39:46;10.00;99.90
47168;DHT22;32931;47.778;17.806;2022-11-12T15:44:43;9.90;99.90
47168;DHT22;32931;47.778;17.806;2022-11-12T15:47:18;9.90;99.90
47168;DHT22;32931;47.778;17.806;2022-11-12T15:49:49;9.90;99.90
47168;DHT22;32931;47.778;17.806;2022-11-12T15:52:16;9.90;99.90
47168;DHT22;32931;47.778;17.806;2022-11-12T15:54:42;9.80;99.90
47168;DHT22;32931;47.778;17.806;2022-11-12T15:57:28;9.90;99.90
47168;DHT22;32931;47.778;17.806;2022-11-12T16:00:14;9.90;99.90
47168;DHT22;32931;47.778;17.806;2022-11-12T16:02:42;9.80;99.90
47168;DHT22;32931;47.778;17.806;2022-11-12T16:05:13;9.80;99.90
47168;DHT22;32931;47.778;17.806;2022-11-12T16:07:39;9.70;99.90
47168;DHT22;32931;47.778;17.806;2022-11-12T16:10:06;9.80;99.90
47168;DHT22;32931;47.778;17.806;2022-11-12T16:12:33;9.70;99.90
47168;DHT22;32931;47.778;17.806;2022-11-12T16:15:00;9.70;99.90
47168;DHT22;32931;47.778;17.806;2022-11-12T16:17:26;9.70;99.90
47168;DHT22;32931;47.778;17.806;2022-11-12T16:19:53;9.70;99.90
47168;DHT22;32931;47.778;17.806;2022-11-12T16:22:19;9.70;99.90
47168;DHT22;32931;47.778;17.806;2022-11-12T16:24:45;9.60;99.90
47168;DHT22;32931;47.778;17.806;2022-11-12T16:27:14;9.60;99.90
47168;DHT22;32931;47.778;17.806;2022-11-12T16:29:41;9.70;99.90
47168;DHT22;32931;47.778;17.806;2022-11-12T16:32:12;9.60;99.90
47168;DHT22;32931;47.778;17.806;2022-11-12T16:34:38;9.60;99.90
47168;DHT22;32931;47.778;17.806;2022-11-12T16:37:07;9.60;99.90
47168;DHT22;32931;47.778;17.806;2022-11-12T16:39:34;9.50;99.90
47168;DHT22;32931;47.778;17.806;2022-11-12T16:42:01;9.40;99.90
47168;DHT22;32931;47.778;17.806;2022-11-12T16:44:27;9.30;99.90
47168;DHT22;32931;47.778;17.806;2022-11-12T16:46:53;9.20;99.90
47168;DHT22;32931;47.778;17.806;2022-11-12T16:49:19;9.10;99.90
47168;DHT22;32931;47.778;17.806;2022-11-12T16:51:46;9.00;99.90
47168;DHT22;32931;47.778;17.806;2022-11-12T16:54:13;8.90;99.90
47168;DHT22;32931;47.778;17.806;2022-11-12T16:56:39;8.80;99.90
47168;DHT22;32931;47.778;17.806;2022-11-12T16:59:05;8.70;99.90
47168;DHT22;32931;47.778;17.806;2022-11-12T17:01:32;8.60;99.90
47168;DHT22;32931;47.778;17.806;2022-11-12T17:03:59;8.60;99.90
47168;DHT22;32931;47.778;17.806;2022-11-12T17:06:34;8.50;99.90
47168;DHT22;32931;47.778;17.806;2022-11-12T17:09:03;8.40;99.90
47168;DHT22;32931;47.778;17.806;2022-11-12T17:11:29;8.40;99.90
47168;DHT22;32931;47.778;17.806;2022-11-12T17:13:55;8.30;99.90
47168;DHT22;32931;47.778;17.806;2022-11-12T17:16:21;8.30;99.90
47168;DHT22;32931;47.778;17.806;2022-11-12T17:18:52;8.30;99.90
47168;DHT22;32931;47.778;17.806;2022-11-12T17:21:18;8.30;99.90
47168;DHT22;32931;47.778;17.806;2022-11-12T17:23:44;8.30;99.90
47168;DHT22;32931;47.778;17.806;2022-11-12T17:26:13;8.30;99.90
47168;DHT22;32931;47.778;17.806;2022-11-12T17:28:39;8.30;99.90
47168;DHT22;32931;47.778;17.806;2022-11-12T17:31:17;8.40;99.90
47168;DHT22;32931;47.778;17.806;2022-11-12T17:33:48;8.40;99.90
47168;DHT22;32931;47.778;17.806;2022-11-12T17:36:23;8.40;99.90
47168;DHT22;32931;47.778;17.806;2022-11-12T17:38:53;8.40;99.90
47168;DHT22;32931;47.778;17.806;2022-11-12T17:41:20;8.40;99.90
47168;DHT22;32931;47.778;17.806;2022-11-12T17:43:46;8.40;99.90
47168;DHT22;32931;47.778;17.806;2022-11-12T17:46:13;8.40;99.90
47168;DHT22;32931;47.778;17.806;2022-11-12T17:48:42;8.30;99.90
47168;DHT22;32931;47.778;17.806;2022-11-12T17:51:16;8.20;99.90